地図

経路データ

SID SEASON NUMBER BASIN SUBBASIN NAME ISO_TIME NATURE LAT LON WMO_WIND WMO_PRES WMO_AGENCY TRACK_TYPE DIST2LAND LANDFALL IFLAG USA_AGENCY USA_ATCF_ID USA_LAT USA_LON USA_RECORD USA_STATUS USA_WIND USA_PRES USA_SSHS USA_R34_NE USA_R34_SE USA_R34_SW USA_R34_NW USA_R50_NE USA_R50_SE USA_R50_SW USA_R50_NW USA_R64_NE USA_R64_SE USA_R64_SW USA_R64_NW USA_POCI USA_ROCI USA_RMW USA_EYE TOKYO_LAT TOKYO_LON TOKYO_GRADE TOKYO_WIND TOKYO_PRES TOKYO_R50_DIR TOKYO_R50_LONG TOKYO_R50_SHORT TOKYO_R30_DIR TOKYO_R30_LONG TOKYO_R30_SHORT TOKYO_LAND CMA_LAT CMA_LON CMA_CAT CMA_WIND CMA_PRES HKO_LAT HKO_LON HKO_CAT HKO_WIND HKO_PRES NEWDELHI_LAT NEWDELHI_LON NEWDELHI_GRADE NEWDELHI_WIND NEWDELHI_PRES NEWDELHI_CI NEWDELHI_DP NEWDELHI_POCI REUNION_LAT REUNION_LON REUNION_TYPE REUNION_WIND REUNION_PRES REUNION_TNUM REUNION_CI REUNION_RMW REUNION_R34_NE REUNION_R34_SE REUNION_R34_SW REUNION_R34_NW REUNION_R50_NE REUNION_R50_SE REUNION_R50_SW REUNION_R50_NW REUNION_R64_NE REUNION_R64_SE REUNION_R64_SW REUNION_R64_NW BOM_LAT BOM_LON BOM_TYPE BOM_WIND BOM_PRES BOM_TNUM BOM_CI BOM_RMW BOM_R34_NE BOM_R34_SE BOM_R34_SW BOM_R34_NW BOM_R50_NE BOM_R50_SE BOM_R50_SW BOM_R50_NW BOM_R64_NE BOM_R64_SE BOM_R64_SW BOM_R64_NW BOM_ROCI BOM_POCI BOM_EYE BOM_POS_METHOD BOM_PRES_METHOD NADI_LAT NADI_LON NADI_CAT NADI_WIND NADI_PRES WELLINGTON_LAT WELLINGTON_LON WELLINGTON_WIND WELLINGTON_PRES DS824_LAT DS824_LON DS824_STAGE DS824_WIND DS824_PRES TD9636_LAT TD9636_LON TD9636_STAGE TD9636_WIND TD9636_PRES TD9635_LAT TD9635_LON TD9635_WIND TD9635_PRES TD9635_ROCI NEUMANN_LAT NEUMANN_LON NEUMANN_CLASS NEUMANN_WIND NEUMANN_PRES MLC_LAT MLC_LON MLC_CLASS MLC_WIND MLC_PRES USA_GUST BOM_GUST BOM_GUST_PER REUNION_GUST REUNION_GUST_PER USA_SEAHGT USA_SEARAD_NE USA_SEARAD_SE USA_SEARAD_SW USA_SEARAD_NW STORM_SPEED STORM_DIR
1894335S18054 1895 55 SI MM NOT_NAMED 1894-12-01 06:00:00 NR -17.5000 54.2000 reunion spur-split 408 397 _____O________ -1 -17.5000 54.2000 99 9.90000 2 206
1894335S18054 1895 55 SI MM NOT_NAMED 1894-12-01 09:00:00 NR -17.5714 54.1691 spur-split 397 397 _____P________ -1 -17.5714 54.1691 99 2 202
1894335S18054 1895 55 SI MM NOT_NAMED 1894-12-01 12:00:00 NR -17.6467 54.1364 spur-split 400 390 _____P________ -1 -17.6467 54.1364 99 2 203
1894335S18054 1895 55 SI MM NOT_NAMED 1894-12-01 15:00:00 NR -17.7298 54.1000 spur-split 390 379 _____P________ -1 -17.7298 54.1000 99 2 203
1894335S18054 1895 55 SI MM NOT_NAMED 1894-12-01 18:00:00 NR -17.8247 54.0583 spur-split 379 372 _____P________ -1 -17.8247 54.0583 99 2 203
1894335S18054 1895 55 SI MM NOT_NAMED 1894-12-01 21:00:00 NR -17.9353 54.0092 spur-split 372 351 _____P________ -1 -17.9353 54.0092 99 3 204
1894335S18054 1895 55 SI MM NOT_NAMED 1894-12-02 00:00:00 NR -18.0654 53.9510 spur-split 351 345 _____P________ -1 -18.0654 53.9510 99 3 202
1894335S18054 1895 55 SI MM NOT_NAMED 1894-12-02 03:00:00 NR -18.2190 53.8819 spur-split 345 330 _____P________ -1 -18.2190 53.8819 99 4 203
1894335S18054 1895 55 SI MM NOT_NAMED 1894-12-02 06:00:00 NR -18.4000 53.8000 reunion spur-split 330 316 _____O________ -1 -18.4000 53.8000 99 9.90000 4 203
1894335S18054 1895 55 SI MM NOT_NAMED 1894-12-02 09:00:00 NR -18.6113 53.7048 spur-split 316 303 _____P________ -1 -18.6113 53.7048 99 5 203
1894335S18054 1895 55 SI MM NOT_NAMED 1894-12-02 12:00:00 NR -18.8519 53.6016 spur-split 294 283 _____P________ -1 -18.8519 53.6016 99 5 201
1894335S18054 1895 55 SI MM NOT_NAMED 1894-12-02 15:00:00 NR -19.1197 53.4973 spur-split 283 267 _____P________ -1 -19.1197 53.4973 99 6 199
1894335S18054 1895 55 SI MM NOT_NAMED 1894-12-02 18:00:00 NR -19.4129 53.3987 spur-split 267 251 _____P________ -1 -19.4129 53.3987 99 6 196
1894335S18054 1895 55 SI MM NOT_NAMED 1894-12-02 21:00:00 NR -19.7294 53.3127 spur-split 252 232 _____P________ -1 -19.7294 53.3127 99 7 192
1894335S18054 1895 55 SI MM NOT_NAMED 1894-12-03 00:00:00 NR -20.0674 53.2462 spur-split 236 222 _____P________ -1 -20.0674 53.2462 99 7 188
1894335S18054 1895 55 SI MM NOT_NAMED 1894-12-03 03:00:00 NR -20.4249 53.2062 spur-split 222 210 _____P________ -1 -20.4249 53.2062 99 7 183
1894335S18054 1895 55 SI MM NOT_NAMED 1894-12-03 06:00:00 NR -20.8000 53.2000 reunion spur-split 210 197 _____O________ -1 -20.8000 53.2000 99 9.90000 8 178
1894335S18054 1895 55 SI MM NOT_NAMED 1894-12-03 09:00:00 NR -21.2264 53.2562 spur-split 197 197 _____P________ -1 -21.2264 53.2562 99 9 171
1894335S18054 1895 55 SI MM NOT_NAMED 1894-12-03 12:00:00 NR -21.6798 53.3473 spur-split 207 198 _____P________ -1 -21.6798 53.3473 99 9 168
1894335S18054 1895 55 SI MM NOT_NAMED 1894-12-03 15:00:00 NR -22.1466 53.4658 spur-split 206 206 _____P________ -1 -22.1466 53.4658 99 10 166
1894335S18054 1895 55 SI MM NOT_NAMED 1894-12-03 18:00:00 NR -22.6130 53.6043 spur-split 227 227 _____P________ -1 -22.6130 53.6043 99 10 164
1894335S18054 1895 55 SI MM NOT_NAMED 1894-12-03 21:00:00 NR -23.0652 53.7549 spur-split 253 253 _____P________ -1 -23.0652 53.7549 99 9 162
1894335S18054 1895 55 SI MM NOT_NAMED 1894-12-04 00:00:00 NR -23.4896 53.9098 spur-split 284 284 _____P________ -1 -23.4896 53.9098 99 9 161
1894335S18054 1895 55 SI MM NOT_NAMED 1894-12-04 03:00:00 NR -23.8724 54.0609 spur-split 315 315 _____P________ -1 -23.8724 54.0609 99 8 160
1894335S18054 1895 55 SI MM NOT_NAMED 1894-12-04 06:00:00 NR -24.2000 54.2000 reunion spur-split 343 343 _____O________ -1 -24.2000 54.2000 99 9.90000 6 158
1894335S18054 1895 55 SI MM NOT_NAMED 1894-12-04 09:00:00 NR -24.4626 54.3205 spur-split 371 367 _____P________ -1 -24.4626 54.3205 99 5 157
1894335S18054 1895 55 SI MM NOT_NAMED 1894-12-04 12:00:00 NR -24.6651 54.4230 spur-split 388 385 _____P________ -1 -24.6651 54.4230 99 4 154
1894335S18054 1895 55 SI MM NOT_NAMED 1894-12-04 15:00:00 NR -24.8161 54.5099 spur-split 396 396 _____P________ -1 -24.8161 54.5099 99 3 150
1894335S18054 1895 55 SI MM NOT_NAMED 1894-12-04 18:00:00 NR -24.9243 54.5837 spur-split 404 404 _____P________ -1 -24.9243 54.5837 99 2 146
1894335S18054 1895 55 SI MM NOT_NAMED 1894-12-04 21:00:00 NR -24.9982 54.6470 spur-split 415 412 _____P________ -1 -24.9982 54.6470 99 2 138
1894335S18054 1895 55 SI MM NOT_NAMED 1894-12-05 00:00:00 NR -25.0464 54.7024 spur-split 412 412 _____P________ -1 -25.0464 54.7024 99 1 129
1894335S18054 1895 55 SI MM NOT_NAMED 1894-12-05 03:00:00 NR -25.0775 54.7525 spur-split 421 421 _____P________ -1 -25.0775 54.7525 99 1 121
1894335S18054 1895 55 SI MM NOT_NAMED 1894-12-05 06:00:00 NR -25.1000 54.8000 reunion spur-split 421 _____O________ -1 -25.1000 54.8000 99 9.90000 1 125

IBTrACS Databaseについて

本データベースは、米国NOAAが公開する1842年以降の世界の熱帯低気圧のベストトラックデータアーカイブInternational Best Track Archive for Climate Stewardship (IBTrACS)を、ウェブで閲覧しやすい形式に変換したものです。

最終更新日:2021-11-26